Time;durP1;ratioP1;P1;durP2;ratioP2;P2;SDS_P1;SDS_P2;PMS_P1;PMS_P2;Temp;Humidity;BMP_temperature;BMP_pressure;BME280_temperature;BME280_humidity;BME280_pressure;Samples;Min_cycle;Max_cycle;Signal;HPM_P1;HPM_P2
2022/04/13 00:01:13;;;;;;;11.35;8.07;;;13.80;99.90;;;;;;4992767;28;20042;-71
2022/04/13 00:03:39;;;;;;;11.27;8.50;;;13.70;99.90;;;;;;4991613;28;20535;-71
2022/04/13 00:06:04;;;;;;;13.18;8.65;;;13.70;99.90;;;;;;4993058;28;20049;-71
2022/04/13 00:08:31;;;;;;;12.05;9.82;;;13.70;99.90;;;;;;4991556;28;20046;-71
2022/04/13 00:10:57;;;;;;;11.27;8.43;;;13.60;99.90;;;;;;4992628;28;20046;-71
2022/04/13 00:13:22;;;;;;;11.73;8.90;;;13.60;99.90;;;;;;4992766;28;20041;-71
2022/04/13 00:15:48;;;;;;;11.57;8.23;;;13.60;99.90;;;;;;4992661;28;20121;-71
2022/04/13 00:18:14;;;;;;;11.98;7.85;;;13.50;99.90;;;;;;4991364;28;20050;-71
2022/04/13 00:20:39;;;;;;;10.70;7.63;;;13.50;99.90;;;;;;4992584;28;20122;-71
2022/04/13 00:23:06;;;;;;;10.50;8.38;;;13.50;99.90;;;;;;4991253;28;20046;-71
2022/04/13 00:25:33;;;;;;;12.07;8.63;;;13.50;99.90;;;;;;4991606;28;20658;-71
2022/04/13 00:27:59;;;;;;;12.43;8.70;;;13.40;99.90;;;;;;4992525;28;20034;-71
2022/04/13 00:30:25;;;;;;;10.27;7.28;;;13.40;99.90;;;;;;4990918;28;20049;-71
2022/04/13 00:32:50;;;;;;;10.57;7.93;;;13.40;99.90;;;;;;4992600;28;20053;-71
2022/04/13 00:35:17;;;;;;;10.48;8.20;;;13.40;99.90;;;;;;4992730;28;20666;-70
2022/04/13 00:37:42;;;;;;;10.30;8.02;;;13.30;99.90;;;;;;4991202;28;20053;-71
2022/04/13 00:40:09;;;;;;;10.05;8.05;;;13.30;99.90;;;;;;4990890;28;20046;-71
2022/04/13 00:42:35;;;;;;;12.70;7.47;;;13.30;99.90;;;;;;4992554;28;20046;-71
2022/04/13 00:45:00;;;;;;;10.70;8.40;;;13.30;99.90;;;;;;4991071;28;20650;-71
2022/04/13 00:47:26;;;;;;;8.75;7.07;;;13.20;99.90;;;;;;4977367;28;20050;-71
2022/04/13 00:49:54;;;;;;;11.18;7.38;;;13.20;99.90;;;;;;4995091;28;20038;-70
2022/04/13 00:52:23;;;;;;;11.50;7.65;;;13.20;99.90;;;;;;4996401;28;20046;-71
2022/04/13 00:54:50;;;;;;;13.35;8.38;;;13.10;99.90;;;;;;4995028;28;20042;-71
2022/04/13 00:57:18;;;;;;;10.10;8.00;;;13.10;99.90;;;;;;4995057;28;20052;-71
2022/04/13 00:59:45;;;;;;;12.05;8.00;;;13.10;99.90;;;;;;4996154;28;20489;-71
2022/04/13 01:02:12;;;;;;;10.10;8.35;;;13.00;99.90;;;;;;4994669;28;20038;-71
2022/04/13 01:04:39;;;;;;;9.52;7.88;;;12.90;99.90;;;;;;4996361;28;20100;-71
2022/04/13 01:07:09;;;;;;;10.32;8.38;;;12.90;99.90;;;;;;4996200;28;20042;-71
2022/04/13 01:09:36;;;;;;;11.10;8.65;;;12.90;99.90;;;;;;4996106;28;20100;-71
2022/04/13 01:12:02;;;;;;;10.70;8.00;;;12.90;99.90;;;;;;4994460;28;20042;-71
2022/04/13 01:14:28;;;;;;;11.80;8.93;;;12.90;99.90;;;;;;4995852;28;20389;-70
2022/04/13 01:16:54;;;;;;;10.00;8.20;;;12.80;99.90;;;;;;4994635;28;20551;-71
2022/04/13 01:19:20;;;;;;;12.98;8.45;;;12.80;99.90;;;;;;4996072;28;20117;-71
2022/04/13 01:21:52;;;;;;;11.52;8.10;;;12.80;99.90;;;;;;4994336;28;20053;-71
2022/04/13 01:24:18;;;;;;;9.55;7.47;;;12.70;99.90;;;;;;4995698;28;20039;-71
2022/04/13 01:26:44;;;;;;;10.02;7.85;;;12.70;99.90;;;;;;4995445;28;20524;-70
2022/04/13 01:29:10;;;;;;;11.27;8.02;;;12.70;99.90;;;;;;4995782;28;20606;-70
2022/04/13 01:31:36;;;;;;;8.65;7.43;;;12.70;99.90;;;;;;4995498;28;20045;-71
2022/04/13 01:34:02;;;;;;;9.88;7.35;;;12.70;99.90;;;;;;4995746;28;20030;-71
2022/04/13 01:36:29;;;;;;;10.75;8.60;;;12.70;99.90;;;;;;4994390;28;20133;-71
2022/04/13 01:38:54;;;;;;;14.48;8.43;;;12.60;99.90;;;;;;4995607;28;20045;-70
2022/04/13 01:41:20;;;;;;;10.88;7.75;;;12.70;99.90;;;;;;4994172;28;20035;-71
2022/04/13 01:43:46;;;;;;;8.90;7.53;;;12.70;99.90;;;;;;4994198;28;20443;-71
2022/04/13 01:46:11;;;;;;;11.50;8.30;;;12.70;99.90;;;;;;4994389;28;20038;-71
2022/04/13 01:48:37;;;;;;;9.48;8.05;;;12.70;99.90;;;;;;4994080;28;20488;-70
2022/04/13 01:51:03;;;;;;;10.48;7.88;;;12.60;99.90;;;;;;4993941;28;20471;-71
2022/04/13 01:53:29;;;;;;;11.30;8.05;;;12.60;99.90;;;;;;4993887;28;20649;-70
2022/04/13 01:55:55;;;;;;;9.75;7.85;;;12.70;99.90;;;;;;4993911;28;20050;-71
2022/04/13 01:58:21;;;;;;;11.68;7.97;;;12.60;99.90;;;;;;4993892;28;20411;-70
2022/04/13 02:00:53;;;;;;;10.10;7.68;;;12.60;99.90;;;;;;4994851;28;20038;-71
2022/04/13 02:03:19;;;;;;;10.10;7.82;;;12.60;99.90;;;;;;4993730;28;20113;-71
2022/04/13 02:05:46;;;;;;;11.52;8.55;;;12.60;99.90;;;;;;4993814;28;20038;-71
2022/04/13 02:08:11;;;;;;;11.15;8.60;;;12.60;99.90;;;;;;4994767;28;20046;-71
2022/04/13 02:10:37;;;;;;;8.63;7.57;;;12.60;99.90;;;;;;4993250;28;20558;-70
2022/04/13 02:13:03;;;;;;;11.07;7.72;;;12.50;99.90;;;;;;4994794;28;20041;-71
2022/04/13 02:15:28;;;;;;;11.40;7.53;;;12.50;99.90;;;;;;4993584;28;20043;-71
2022/04/13 02:17:54;;;;;;;13.82;8.70;;;12.50;99.90;;;;;;4994779;28;20400;-71
2022/04/13 02:20:19;;;;;;;10.35;7.53;;;12.50;99.90;;;;;;4993357;28;20043;-71
2022/04/13 02:22:46;;;;;;;11.85;8.48;;;12.50;99.90;;;;;;4994618;28;20041;-71
2022/04/13 02:25:12;;;;;;;12.18;8.32;;;12.50;99.90;;;;;;4993440;28;20046;-71
2022/04/13 02:27:38;;;;;;;12.73;8.95;;;12.50;99.90;;;;;;4994813;28;20045;-71
2022/04/13 02:30:04;;;;;;;9.85;8.45;;;12.40;99.90;;;;;;4993077;28;20125;-71
2022/04/13 02:32:30;;;;;;;11.07;8.13;;;12.40;99.90;;;;;;4993473;28;20121;-70
2022/04/13 02:34:55;;;;;;;13.60;8.35;;;12.50;99.90;;;;;;4994508;28;20114;-71
2022/04/13 02:37:21;;;;;;;12.88;8.60;;;12.40;99.90;;;;;;4993174;28;20553;-71
2022/04/13 02:39:47;;;;;;;11.13;8.07;;;12.40;99.90;;;;;;4993109;28;20048;-71
2022/04/13 02:42:14;;;;;;;15.02;8.88;;;12.40;99.90;;;;;;4992819;28;20087;-71
2022/04/13 02:44:43;;;;;;;12.63;8.93;;;12.30;99.90;;;;;;4994240;28;20129;-71
2022/04/13 02:47:10;;;;;;;13.73;8.85;;;12.30;99.90;;;;;;4994076;28;20089;-71
2022/04/13 02:49:36;;;;;;;10.02;8.48;;;12.20;99.90;;;;;;4993079;28;20378;-71
2022/04/13 02:52:01;;;;;;;14.95;8.95;;;12.20;99.90;;;;;;4992712;28;20053;-71
2022/04/13 02:54:27;;;;;;;14.20;9.57;;;12.20;99.90;;;;;;4994015;28;20042;-71
2022/04/13 02:56:52;;;;;;;9.50;8.27;;;12.10;99.90;;;;;;4992609;28;20496;-71
2022/04/13 02:59:18;;;;;;;10.82;7.97;;;12.10;99.90;;;;;;4994112;28;20039;-71
2022/04/13 03:01:43;;;;;;;11.05;8.30;;;12.10;99.90;;;;;;4992550;28;20459;-71
2022/04/13 03:04:10;;;;;;;13.77;8.48;;;12.10;99.90;;;;;;4993631;28;20571;-71
2022/04/13 03:06:35;;;;;;;13.05;9.10;;;12.10;99.90;;;;;;4992545;28;20050;-71
2022/04/13 03:09:03;;;;;;;11.23;8.70;;;12.10;99.90;;;;;;4991995;28;20038;-71
2022/04/13 03:11:29;;;;;;;11.65;8.68;;;12.00;99.90;;;;;;4993473;28;20113;-71
2022/04/13 03:13:55;;;;;;;12.43;9.20;;;12.00;99.90;;;;;;4992363;28;20130;-71
2022/04/13 03:16:20;;;;;;;13.10;9.27;;;12.00;99.90;;;;;;5007886;28;20121;-71
2022/04/13 03:18:46;;;;;;;11.57;9.13;;;12.00;99.90;;;;;;5010768;28;20042;-71
2022/04/13 03:21:11;;;;;;;17.98;9.40;;;11.90;99.90;;;;;;5012828;28;20041;-71
2022/04/13 03:23:37;;;;;;;12.55;9.55;;;11.90;99.90;;;;;;5011692;28;20049;-71
2022/04/13 03:26:03;;;;;;;13.63;9.77;;;11.90;99.90;;;;;;5013159;28;20073;-71
2022/04/13 03:28:28;;;;;;;13.10;8.65;;;11.90;99.90;;;;;;5013014;28;20046;-71
2022/04/13 03:30:54;;;;;;;13.63;8.98;;;11.80;99.90;;;;;;5011518;28;20124;-71
2022/04/13 03:33:19;;;;;;;11.82;9.20;;;11.80;99.90;;;;;;5013029;28;20460;-71
2022/04/13 03:35:45;;;;;;;14.05;10.75;;;11.80;99.90;;;;;;5013025;28;20601;-71
2022/04/13 03:38:11;;;;;;;12.77;9.93;;;11.80;99.90;;;;;;5011555;28;20042;-71
2022/04/13 03:40:36;;;;;;;11.38;9.10;;;11.80;99.90;;;;;;5011440;28;20411;-71
2022/04/13 03:43:02;;;;;;;15.30;10.18;;;11.80;99.90;;;;;;5011386;28;20042;-71
2022/04/13 03:45:28;;;;;;;15.07;11.23;;;11.80;99.90;;;;;;5012907;28;20070;-71
2022/04/13 03:47:53;;;;;;;17.90;11.15;;;11.80;99.90;;;;;;5012796;28;20068;-71
2022/04/13 03:50:19;;;;;;;19.40;12.63;;;11.80;99.90;;;;;;5012175;28;20526;-71
2022/04/13 03:52:44;;;;;;;15.25;11.55;;;11.80;99.90;;;;;;5012489;28;20085;-71
2022/04/13 03:55:11;;;;;;;14.52;11.25;;;11.80;99.90;;;;;;5012846;28;20038;-71
2022/04/13 03:57:36;;;;;;;19.05;12.10;;;11.80;99.90;;;;;;5012798;28;20050;-71
2022/04/13 04:00:06;;;;;;;16.70;12.30;;;11.80;99.90;;;;;;5012253;28;20036;-71
2022/04/13 04:02:35;;;;;;;16.15;11.95;;;11.90;99.90;;;;;;5011983;28;20049;-70
2022/04/13 04:05:02;;;;;;;15.90;11.80;;;11.90;99.90;;;;;;5012455;28;20038;-71
2022/04/13 04:07:28;;;;;;;17.35;12.48;;;11.90;99.90;;;;;;5012457;28;20073;-71
2022/04/13 04:09:53;;;;;;;16.00;11.15;;;12.00;99.90;;;;;;5011397;28;20069;-71
2022/04/13 04:12:19;;;;;;;17.65;12.43;;;12.00;99.90;;;;;;5011239;28;20499;-71
2022/04/13 04:14:44;;;;;;;24.30;12.80;;;12.00;99.90;;;;;;5012261;28;20045;-71
2022/04/13 04:17:10;;;;;;;20.13;12.43;;;12.00;99.90;;;;;;5012270;28;20045;-71
2022/04/13 04:19:35;;;;;;;17.27;12.13;;;12.00;99.90;;;;;;5012300;28;20080;-71
2022/04/13 04:22:01;;;;;;;15.55;12.15;;;12.00;99.90;;;;;;5009914;28;20042;-71
2022/04/13 04:24:27;;;;;;;15.45;11.70;;;12.00;99.90;;;;;;5012008;28;20041;-71
2022/04/13 04:26:52;;;;;;;17.40;11.55;;;12.10;99.90;;;;;;5012160;28;20038;-71
2022/04/13 04:29:18;;;;;;;18.95;11.45;;;12.10;99.90;;;;;;5012181;28;20042;-71
2022/04/13 04:31:49;;;;;;;15.25;11.50;;;12.10;99.90;;;;;;5011887;28;20385;-71
2022/04/13 04:34:16;;;;;;;21.08;12.65;;;12.10;99.90;;;;;;5011842;28;20048;-71
2022/04/13 04:36:41;;;;;;;18.23;13.23;;;12.10;99.90;;;;;;5012293;28;20094;-71
2022/04/13 04:39:07;;;;;;;18.52;11.73;;;12.10;99.90;;;;;;5012258;28;20037;-71
2022/04/13 04:41:33;;;;;;;16.75;12.63;;;12.10;99.90;;;;;;5011942;28;20076;-71
2022/04/13 04:43:59;;;;;;;16.80;11.75;;;12.10;99.90;;;;;;5011963;28;20045;-71
2022/04/13 04:46:25;;;;;;;16.63;11.98;;;12.00;99.90;;;;;;5010868;28;20092;-71
2022/04/13 04:48:50;;;;;;;16.50;11.85;;;12.00;99.90;;;;;;5011872;28;20526;-71
2022/04/13 04:51:16;;;;;;;18.13;11.88;;;12.00;99.90;;;;;;5011856;28;20046;-71
2022/04/13 04:53:42;;;;;;;22.02;13.07;;;11.90;99.90;;;;;;5011935;28;20042;-71
2022/04/13 04:56:08;;;;;;;16.60;12.07;;;11.90;99.90;;;;;;5011868;28;20038;-71
2022/04/13 04:58:34;;;;;;;20.08;12.75;;;11.90;99.90;;;;;;5011832;28;20139;-71
2022/04/13 05:00:59;;;;;;;17.95;12.38;;;11.80;99.90;;;;;;5011356;28;20428;-71
2022/04/13 05:03:25;;;;;;;19.77;15.13;;;11.80;99.90;;;;;;5011425;28;20042;-71
2022/04/13 05:05:51;;;;;;;17.90;13.52;;;11.80;99.90;;;;;;5011656;28;20050;-71
2022/04/13 05:08:17;;;;;;;18.83;13.15;;;11.80;99.90;;;;;;5010364;28;20046;-71
2022/04/13 05:10:43;;;;;;;21.50;14.23;;;11.80;99.90;;;;;;5011405;28;20037;-71
2022/04/13 05:13:09;;;;;;;21.30;15.20;;;11.80;99.90;;;;;;5011702;28;20038;-71
2022/04/13 05:15:35;;;;;;;21.98;13.90;;;11.90;99.90;;;;;;5010401;28;20044;-71
2022/04/13 05:18:00;;;;;;;21.55;15.23;;;11.90;99.90;;;;;;5010300;28;20384;-71
2022/04/13 05:20:26;;;;;;;23.38;14.52;;;11.90;99.90;;;;;;5010112;28;20436;-71
2022/04/13 05:22:51;;;;;;;19.95;13.90;;;12.00;99.90;;;;;;5011672;28;20125;-71
2022/04/13 05:25:17;;;;;;;23.50;15.65;;;12.00;99.90;;;;;;5010524;28;20049;-71
2022/04/13 05:27:44;;;;;;;21.10;14.40;;;12.00;99.90;;;;;;5010275;28;20038;-71
2022/04/13 05:30:11;;;;;;;22.88;14.35;;;12.00;99.90;;;;;;5010013;28;20064;-71
2022/04/13 05:32:56;;;;;;;18.95;13.38;;;12.10;99.90;;;;;;5011130;28;20042;-71
2022/04/13 05:35:23;;;;;;;20.95;14.27;;;12.10;99.90;;;;;;5014358;28;20500;-71
2022/04/13 05:37:49;;;;;;;20.35;13.70;;;12.10;99.90;;;;;;5015356;28;20044;-71
2022/04/13 05:40:14;;;;;;;19.55;13.57;;;12.10;99.90;;;;;;5013870;28;20128;-71
2022/04/13 05:42:40;;;;;;;23.05;14.65;;;12.20;99.90;;;;;;5013897;28;20514;-71
2022/04/13 05:45:06;;;;;;;22.05;13.60;;;12.20;99.90;;;;;;5014979;28;20549;-71
2022/04/13 05:47:32;;;;;;;24.70;15.07;;;12.30;99.90;;;;;;5015184;28;20052;-71
2022/04/13 05:49:58;;;;;;;20.73;14.25;;;12.30;99.90;;;;;;5013470;28;20116;-71
2022/04/13 05:52:23;;;;;;;23.92;15.00;;;12.30;99.90;;;;;;5013103;28;20060;-70
2022/04/13 05:54:49;;;;;;;22.33;14.48;;;12.30;99.90;;;;;;5013674;28;20180;-71
2022/04/13 05:57:14;;;;;;;22.65;14.77;;;12.30;99.90;;;;;;5013393;28;20156;-71
2022/04/13 05:59:40;;;;;;;17.75;14.02;;;12.30;99.90;;;;;;5013640;28;20449;-71
2022/04/13 06:02:05;;;;;;;25.75;16.02;;;12.30;99.90;;;;;;5014545;28;20057;-71
2022/04/13 06:04:31;;;;;;;23.48;15.27;;;12.20;99.90;;;;;;5014501;28;20057;-71
2022/04/13 06:06:59;;;;;;;25.17;15.02;;;12.20;99.90;;;;;;5014189;28;20049;-71
2022/04/13 06:09:25;;;;;;;21.73;14.00;;;12.20;99.90;;;;;;5010179;28;20499;-71
2022/04/13 06:11:51;;;;;;;22.38;14.15;;;12.30;99.90;;;;;;5014246;28;20400;-71
2022/04/13 06:14:17;;;;;;;24.60;15.07;;;12.30;99.90;;;;;;5014422;28;20045;-71
2022/04/13 06:16:42;;;;;;;21.05;14.40;;;12.40;99.90;;;;;;5014480;28;20403;-71
2022/04/13 06:19:08;;;;;;;19.45;14.23;;;12.50;99.90;;;;;;5014703;28;20034;-71
2022/04/13 06:21:34;;;;;;;26.83;16.38;;;12.50;99.90;;;;;;5013147;28;20446;-71
2022/04/13 06:24:00;;;;;;;21.10;14.10;;;12.70;99.90;;;;;;5013202;28;20408;-70
2022/04/13 06:26:25;;;;;;;18.92;13.95;;;12.80;99.90;;;;;;5014398;28;20030;-70
2022/04/13 06:28:52;;;;;;;20.83;15.20;;;12.90;99.90;;;;;;5012950;28;20042;-70
2022/04/13 06:31:21;;;;;;;23.08;14.75;;;13.20;99.90;;;;;;5014163;28;20124;-70
2022/04/13 06:33:47;;;;;;;22.38;14.60;;;13.40;99.90;;;;;;5014295;28;20095;-71
2022/04/13 06:36:13;;;;;;;24.15;15.20;;;13.70;99.90;;;;;;5014435;28;20108;-71
2022/04/13 06:38:40;;;;;;;27.33;17.55;;;14.00;99.90;;;;;;5014220;28;20133;-71
2022/04/13 06:41:07;;;;;;;26.10;14.70;;;14.00;99.90;;;;;;5012817;28;20420;-71
2022/04/13 06:43:33;;;;;;;24.85;16.88;;;14.00;99.90;;;;;;5012287;28;20091;-71
2022/04/13 06:45:58;;;;;;;21.95;14.75;;;13.90;99.90;;;;;;5013431;28;20038;-71
2022/04/13 06:48:24;;;;;;;27.00;17.17;;;14.00;99.90;;;;;;5012566;28;20046;-71
2022/04/13 06:50:49;;;;;;;21.88;15.00;;;14.10;99.90;;;;;;5012297;28;20038;-71
2022/04/13 06:53:17;;;;;;;26.08;15.50;;;14.20;99.90;;;;;;5013386;28;20164;-71
2022/04/13 06:55:44;;;;;;;25.77;14.82;;;14.40;99.90;;;;;;5012698;28;20499;-71
2022/04/13 06:58:09;;;;;;;26.33;14.98;;;14.60;99.90;;;;;;5013611;28;20518;-71
2022/04/13 07:00:35;;;;;;;25.15;15.65;;;14.70;99.90;;;;;;5013573;28;20046;-71
2022/04/13 07:03:01;;;;;;;23.20;14.43;;;14.90;99.90;;;;;;5013242;28;20042;-71
2022/04/13 07:05:28;;;;;;;19.13;13.32;;;15.00;99.90;;;;;;5012542;28;20054;-73
2022/04/13 07:07:55;;;;;;;20.20;13.52;;;15.00;99.90;;;;;;5012107;28;20046;-70
2022/04/13 07:10:21;;;;;;;24.65;14.65;;;14.90;99.90;;;;;;5012635;28;20042;-71
2022/04/13 07:12:46;;;;;;;21.15;13.65;;;14.90;99.90;;;;;;5012020;28;20133;-71
2022/04/13 07:15:16;;;;;;;21.25;13.57;;;14.80;99.90;;;;;;5013657;28;20466;-71
2022/04/13 07:17:43;;;;;;;25.00;14.40;;;14.70;99.90;;;;;;5013482;28;20046;-70
2022/04/13 07:20:09;;;;;;;22.73;15.25;;;14.70;99.90;;;;;;5013012;28;20041;-71
2022/04/13 07:22:49;;;;;;;24.83;14.45;;;14.80;99.90;;;;;;5013196;28;20045;-71
2022/04/13 07:25:17;;;;;;;24.15;14.80;;;15.20;99.90;;;;;;5011781;28;20046;-71
2022/04/13 07:27:43;;;;;;;21.77;12.52;;;15.30;99.90;;;;;;5013256;28;20052;-71
2022/04/13 07:30:09;;;;;;;21.90;14.18;;;15.70;99.90;;;;;;5012966;28;20034;-71
2022/04/13 07:32:34;;;;;;;22.65;14.35;;;16.00;99.90;;;;;;5011730;28;20050;-71
2022/04/13 07:35:02;;;;;;;24.10;15.05;;;16.20;99.90;;;;;;5012994;28;20034;-71
2022/04/13 07:37:29;;;;;;;21.02;12.73;;;16.30;99.90;;;;;;5011840;28;20045;-72
2022/04/13 07:39:55;;;;;;;19.45;13.20;;;16.50;99.90;;;;;;5012195;28;20041;-71
2022/04/13 07:42:26;;;;;;;23.90;14.07;;;16.80;99.90;;;;;;5009924;28;20060;-71
2022/04/13 07:44:52;;;;;;;23.70;12.95;;;17.10;99.90;;;;;;5011571;28;20046;-71
2022/04/13 07:47:19;;;;;;;22.83;13.57;;;17.30;99.90;;;;;;5011665;28;20634;-71
2022/04/13 07:49:46;;;;;;;17.15;11.90;;;17.20;99.90;;;;;;5012847;28;20038;-70
2022/04/13 07:52:12;;;;;;;19.58;11.80;;;16.90;99.90;;;;;;5012366;28;20104;-70
2022/04/13 07:54:38;;;;;;;19.42;12.82;;;16.80;99.90;;;;;;5012646;28;20593;-70
2022/04/13 07:57:04;;;;;;;21.48;14.07;;;16.70;99.90;;;;;;5011242;28;20419;-70
2022/04/13 07:59:29;;;;;;;17.45;12.10;;;16.40;99.90;;;;;;5012798;28;20045;-71
2022/04/13 08:01:55;;;;;;;22.48;13.00;;;16.30;99.90;;;;;;5011044;28;20050;-71
2022/04/13 08:04:20;;;;;;;19.55;11.82;;;16.20;99.90;;;;;;5011128;28;20033;-71
2022/04/13 08:06:46;;;;;;;18.52;11.68;;;16.00;99.90;;;;;;5027685;28;20458;-70
2022/04/13 08:09:12;;;;;;;17.05;11.10;;;15.80;99.90;;;;;;5012641;28;20096;-70
2022/04/13 08:11:38;;;;;;;16.75;11.82;;;15.70;99.90;;;;;;5012283;28;20117;-72
2022/04/13 08:14:03;;;;;;;18.48;11.65;;;15.60;99.90;;;;;;5010851;28;20491;-71
2022/04/13 08:16:29;;;;;;;16.55;12.80;;;15.50;99.90;;;;;;4999865;28;20552;-71
2022/04/13 08:18:54;;;;;;;18.58;12.35;;;15.50;99.90;;;;;;5002963;28;20109;-71
2022/04/13 08:21:20;;;;;;;20.67;11.93;;;15.40;99.90;;;;;;5000351;28;20090;-71
2022/04/13 08:23:46;;;;;;;21.60;12.43;;;15.40;99.90;;;;;;5010059;28;20049;-71
2022/04/13 08:26:12;;;;;;;20.75;13.35;;;15.50;99.90;;;;;;5011953;28;20411;-71
2022/04/13 08:28:37;;;;;;;16.83;11.75;;;15.60;99.90;;;;;;5007970;28;20038;-71
2022/04/13 08:31:04;;;;;;;17.90;12.25;;;15.60;99.90;;;;;;5011976;28;20033;-71
2022/04/13 08:33:30;;;;;;;20.15;11.90;;;15.70;99.90;;;;;;5010512;28;20038;-72
2022/04/13 08:35:59;;;;;;;16.23;12.43;;;15.80;99.90;;;;;;5010197;28;20077;-71
2022/04/13 08:38:28;;;;;;;19.23;12.57;;;15.80;99.90;;;;;;5010637;28;20426;-71
2022/04/13 08:41:02;;;;;;;18.55;12.35;;;15.80;99.90;;;;;;5010681;28;20038;-72
2022/04/13 08:43:51;;;;;;;20.45;13.30;;;15.90;99.90;;;;;;5011912;28;20084;-71
2022/04/13 08:46:27;;;;;;;19.02;12.00;;;16.10;99.90;;;;;;4994370;28;20093;-72
2022/04/13 08:48:56;;;;;;;19.67;12.40;;;16.40;99.90;;;;;;5011776;28;20038;-71
2022/04/13 08:51:24;;;;;;;20.88;14.13;;;16.70;99.90;;;;;;5011742;28;20056;-72
2022/04/13 08:54:11;;;;;;;18.10;10.52;;;16.90;99.90;;;;;;5010490;28;20049;-71
2022/04/13 08:56:39;;;;;;;17.85;11.35;;;17.10;99.90;;;;;;5010604;28;20596;-71
2022/04/13 08:59:25;;;;;;;17.15;10.40;;;17.40;99.90;;;;;;5009786;28;20034;-72
2022/04/13 09:02:03;;;;;;;15.80;10.65;;;17.40;99.90;;;;;;4992128;28;20050;-72
2022/04/13 09:04:35;;;;;;;16.75;10.93;;;17.60;99.90;;;;;;5003207;28;20053;-71
2022/04/13 09:07:03;;;;;;;17.60;10.82;;;17.80;99.90;;;;;;5010602;28;20046;-71
2022/04/13 09:09:37;;;;;;;15.73;10.15;;;17.60;99.90;;;;;;5014251;28;20042;-71
2022/04/13 09:12:04;;;;;;;20.70;9.93;;;17.70;99.90;;;;;;5015065;28;20042;-71
2022/04/13 09:14:31;;;;;;;14.10;9.43;;;17.80;99.90;;;;;;5013366;28;20120;-71
2022/04/13 09:16:57;;;;;;;19.00;10.30;;;17.70;99.90;;;;;;5014015;28;20046;-71
2022/04/13 09:19:26;;;;;;;14.50;10.00;;;17.60;99.90;;;;;;5015420;28;20038;-71
2022/04/13 09:21:53;;;;;;;17.60;11.60;;;17.70;99.90;;;;;;5013723;28;20038;-71
2022/04/13 09:24:19;;;;;;;16.27;11.27;;;17.90;99.90;;;;;;5015053;28;20040;-71
2022/04/13 09:26:46;;;;;;;15.68;11.10;;;18.10;99.90;;;;;;5015367;28;20033;-71
2022/04/13 09:29:12;;;;;;;14.65;10.10;;;18.20;99.90;;;;;;5015499;28;20038;-71
2022/04/13 09:31:37;;;;;;;13.05;8.68;;;18.30;99.90;;;;;;5013626;28;20125;-72
2022/04/13 09:34:03;;;;;;;12.82;8.23;;;18.30;99.90;;;;;;5015269;28;20038;-72
2022/04/13 09:36:29;;;;;;;14.13;8.43;;;18.40;99.90;;;;;;5013901;28;20034;-72
2022/04/13 09:38:56;;;;;;;12.95;9.32;;;18.50;99.90;;;;;;5013933;28;20073;-72
2022/04/13 09:41:35;;;;;;;15.45;9.27;;;18.60;99.90;;;;;;5013809;28;20037;-72
2022/04/13 09:44:01;;;;;;;13.65;8.65;;;18.80;99.50;;;;;;5015163;28;20041;-72
2022/04/13 09:46:31;;;;;;;13.23;7.55;;;19.00;99.00;;;;;;5015095;28;20052;-72
2022/04/13 09:49:16;;;;;;;14.93;9.38;;;19.10;98.40;;;;;;5012993;28;20037;-72
2022/04/13 09:51:46;;;;;;;14.75;8.20;;;19.10;98.10;;;;;;5012499;28;20034;-72
2022/04/13 09:54:13;;;;;;;15.13;8.35;;;19.00;99.20;;;;;;5014512;28;20542;-72
2022/04/13 09:56:43;;;;;;;12.20;8.00;;;19.00;99.30;;;;;;5013536;28;20046;-72
2022/04/13 09:59:10;;;;;;;13.27;8.18;;;19.10;97.10;;;;;;5014915;28;20038;-72
2022/04/13 10:01:36;;;;;;;10.85;7.13;;;18.90;97.90;;;;;;5013181;28;20038;-72
2022/04/13 10:04:05;;;;;;;10.88;7.55;;;18.90;97.90;;;;;;5013194;28;20033;-72
2022/04/13 10:06:33;;;;;;;13.80;7.88;;;18.90;99.10;;;;;;5014819;28;20644;-71
2022/04/13 10:09:06;;;;;;;12.60;7.53;;;18.80;98.30;;;;;;5014704;28;20088;-72
2022/04/13 10:11:32;;;;;;;13.73;7.30;;;18.80;98.80;;;;;;5013359;28;20042;-72
2022/04/13 10:14:01;;;;;;;10.82;7.00;;;18.70;98.70;;;;;;5013138;28;20569;-72
2022/04/13 10:16:32;;;;;;;9.45;6.72;;;18.60;96.30;;;;;;5014922;28;20084;-72
2022/04/13 10:19:03;;;;;;;10.57;7.38;;;18.60;97.70;;;;;;5011861;28;20058;-72
2022/04/13 10:21:51;;;;;;;13.32;7.55;;;18.60;99.10;;;;;;5012857;28;20529;-72
2022/04/13 10:24:28;;;;;;;10.52;8.25;;;18.80;99.90;;;;;;5014291;28;20080;-72
2022/04/13 10:27:17;;;;;;;13.68;7.53;;;19.00;98.80;;;;;;5013609;28;20044;-72
2022/04/13 10:29:48;;;;;;;14.82;7.80;;;19.10;99.50;;;;;;5014220;28;20033;-70
2022/04/13 10:32:24;;;;;;;16.50;8.45;;;19.00;98.00;;;;;;5013368;28;20041;-72
2022/04/13 10:34:51;;;;;;;12.35;7.22;;;19.30;98.70;;;;;;5013416;28;20510;-72
2022/04/13 10:37:21;;;;;;;10.70;7.40;;;19.30;99.90;;;;;;5013804;28;20037;-72
2022/04/13 10:39:47;;;;;;;12.18;6.78;;;19.40;97.90;;;;;;5012004;28;20045;-72
2022/04/13 10:42:16;;;;;;;10.18;6.97;;;19.40;96.50;;;;;;5012216;28;20471;-72
2022/04/13 10:44:46;;;;;;;10.07;6.60;;;19.50;96.80;;;;;;5010893;28;20488;-72
2022/04/13 10:47:17;;;;;;;11.40;6.28;;;19.70;95.90;;;;;;5013076;28;20045;-72
2022/04/13 10:50:00;;;;;;;11.70;6.68;;;19.80;95.40;;;;;;5010663;28;20475;-73
2022/04/13 10:52:44;;;;;;;9.02;5.95;;;19.70;93.70;;;;;;5011853;28;20435;-72
2022/04/13 10:55:14;;;;;;;13.27;6.90;;;19.70;94.50;;;;;;5003649;28;20475;-72
2022/04/13 10:57:53;;;;;;;12.10;5.47;;;19.70;95.10;;;;;;4996697;28;20042;-73
2022/04/13 11:00:21;;;;;;;6.78;4.40;;;19.80;94.90;;;;;;4993998;28;20062;-72
2022/04/13 11:02:52;;;;;;;8.35;5.07;;;19.50;93.00;;;;;;4993999;28;20050;-72
2022/04/13 11:05:18;;;;;;;8.27;5.53;;;19.60;95.90;;;;;;4994095;28;20049;-73
2022/04/13 11:07:44;;;;;;;8.02;4.88;;;19.50;95.50;;;;;;4992681;28;20039;-72
2022/04/13 11:10:16;;;;;;;6.78;4.07;;;19.50;95.50;;;;;;4993543;28;20118;-72
2022/04/13 11:12:42;;;;;;;5.32;3.30;;;19.40;94.40;;;;;;4993900;28;20129;-72
2022/04/13 11:15:08;;;;;;;5.60;3.80;;;19.50;93.90;;;;;;4993869;28;20085;-71
2022/04/13 11:17:40;;;;;;;5.63;3.65;;;19.50;93.20;;;;;;4993831;28;20407;-71
2022/04/13 11:20:24;;;;;;;6.10;3.83;;;19.60;94.30;;;;;;4993486;28;20512;-72
2022/04/13 11:23:43;;;;;;;5.85;2.95;;;19.50;90.50;;;;;;4992826;28;20071;-72
2022/04/13 11:26:09;;;;;;;4.80;2.90;;;19.70;93.10;;;;;;4946530;29;20047;-72
2022/04/13 11:28:35;;;;;;;4.57;3.22;;;19.60;91.30;;;;;;4952554;29;20106;-72
2022/04/13 11:31:07;;;;;;;6.25;2.58;;;19.60;90.70;;;;;;4975019;28;20051;-70
2022/04/13 11:33:49;;;;;;;6.20;3.28;;;19.50;89.20;;;;;;4992172;28;20122;-70
2022/04/13 11:36:16;;;;;;;7.97;3.03;;;19.50;91.40;;;;;;4993546;28;20123;-70
2022/04/13 11:38:52;;;;;;;6.50;3.25;;;19.40;88.20;;;;;;4992343;28;20046;-70
2022/04/13 11:41:19;;;;;;;6.32;3.40;;;19.30;85.30;;;;;;4991705;28;20034;-70
2022/04/13 11:43:45;;;;;;;6.30;2.83;;;19.40;85.30;;;;;;4992442;28;20057;-70
2022/04/13 11:46:36;;;;;;;4.55;2.30;;;19.50;87.70;;;;;;5002343;28;20069;-70
2022/04/13 11:49:04;;;;;;;6.03;2.42;;;19.50;85.20;;;;;;5011317;28;20484;-70
2022/04/13 11:51:30;;;;;;;4.47;1.55;;;19.30;81.60;;;;;;5008763;28;20034;-67
2022/04/13 11:54:08;;;;;;;4.32;1.13;;;19.30;79.80;;;;;;5012139;28;20061;-69
2022/04/13 11:57:00;;;;;;;4.25;1.45;;;19.20;76.40;;;;;;5009811;28;20038;-70
2022/04/13 11:59:46;;;;;;;4.22;1.85;;;19.10;78.70;;;;;;5011266;28;20412;-70
2022/04/13 12:02:15;;;;;;;5.93;2.22;;;18.80;80.50;;;;;;5011750;28;20066;-70
2022/04/13 12:04:43;;;;;;;6.95;2.50;;;18.80;84.10;;;;;;5012505;28;20502;-70
2022/04/13 12:07:10;;;;;;;8.10;2.92;;;18.60;83.80;;;;;;5012240;28;20045;-71
2022/04/13 12:09:37;;;;;;;7.85;3.38;;;18.60;87.60;;;;;;5012399;28;20046;-71
2022/04/13 12:12:03;;;;;;;6.95;3.17;;;18.40;86.30;;;;;;5012395;28;20108;-70
2022/04/13 12:14:36;;;;;;;9.52;4.40;;;18.20;86.90;;;;;;5012224;28;20518;-72
2022/04/13 12:17:02;;;;;;;7.43;3.80;;;18.20;89.20;;;;;;5012323;28;20125;-71
2022/04/13 12:19:42;;;;;;;6.70;2.95;;;18.20;88.70;;;;;;5012349;28;20046;-71
2022/04/13 12:22:16;;;;;;;7.85;3.03;;;18.20;90.90;;;;;;5012004;28;20083;-71
2022/04/13 12:25:05;;;;;;;7.10;2.75;;;18.10;90.00;;;;;;5010987;28;20050;-71
2022/04/13 12:27:31;;;;;;;8.38;2.75;;;18.10;89.20;;;;;;5011016;28;20463;-71
2022/04/13 12:30:16;;;;;;;6.90;2.97;;;18.10;90.40;;;;;;5010657;28;20041;-71
2022/04/13 12:32:48;;;;;;;6.60;3.05;;;18.20;90.30;;;;;;5012116;28;20045;-71
2022/04/13 12:35:15;;;;;;;8.77;2.63;;;18.20;88.00;;;;;;5011794;28;20041;-71
2022/04/13 12:37:55;;;;;;;10.38;3.47;;;18.10;88.40;;;;;;5011474;28;20360;-72